Buena Vista, New Mexico
Current Conditions -  °F | °C
As of 3:53 AM on Tuesday 21 Oct 2014 (Local Time) from KLVS Reporting Station
Clear Clear  
Wind Chill: 38°   Ceiling: Unl
Heat Index: 41°   Visibility: 10mi
Dew Point: 40°   Wind: 5mph
Humidity: 96%   Direction: 80°E
Pressure: 30.21"   Gusts: NA
Location:  35.91°N, 105.25°W
Report Text: KLVS 210953Z AUTO 08004KT 10SM CLR 05/04 A3021 RMK AO2 SLP162 T00500044
Loading
Personal Weather Stations






























Interactive Weather Map
Tropical Storm Tracking
New forecast layout! Learn more

10-Day Weather Forecast

Advertisements
Track Severe Weather on mobile